sensor_id;sensor_type;location;lat;lon;timestamp;temperature;humidity
6724;DHT22;3399;52.530;13.304;2024-02-15T00:00:35;10.10;99.90
6724;DHT22;3399;52.530;13.304;2024-02-15T00:03:01;10.20;99.90
6724;DHT22;3399;52.530;13.304;2024-02-15T00:05:26;10.20;99.90
6724;DHT22;3399;52.530;13.304;2024-02-15T00:07:52;10.20;99.90
6724;DHT22;3399;52.530;13.304;2024-02-15T00:10:17;10.10;99.90
6724;DHT22;3399;52.530;13.304;2024-02-15T00:12:43;10.20;99.90
6724;DHT22;3399;52.530;13.304;2024-02-15T00:15:08;10.20;99.90
6724;DHT22;3399;52.530;13.304;2024-02-15T00:17:34;10.20;99.90
6724;DHT22;3399;52.530;13.304;2024-02-15T00:20:02;10.20;99.90
6724;DHT22;3399;52.530;13.304;2024-02-15T00:22:29;10.30;99.90
6724;DHT22;3399;52.530;13.304;2024-02-15T00:24:55;10.10;99.90
6724;DHT22;3399;52.530;13.304;2024-02-15T00:27:20;10.20;99.90
6724;DHT22;3399;52.530;13.304;2024-02-15T00:29:46;10.20;99.90
6724;DHT22;3399;52.530;13.304;2024-02-15T00:32:12;10.20;99.90
6724;DHT22;3399;52.530;13.304;2024-02-15T00:34:37;10.20;99.90
6724;DHT22;3399;52.530;13.304;2024-02-15T00:37:04;10.20;99.90
6724;DHT22;3399;52.530;13.304;2024-02-15T00:39:30;10.20;99.90
6724;DHT22;3399;52.530;13.304;2024-02-15T00:41:57;10.10;99.90
6724;DHT22;3399;52.530;13.304;2024-02-15T00:44:22;10.10;99.90
6724;DHT22;3399;52.530;13.304;2024-02-15T00:46:48;10.20;99.90
6724;DHT22;3399;52.530;13.304;2024-02-15T00:49:13;10.20;99.90
6724;DHT22;3399;52.530;13.304;2024-02-15T00:51:39;10.20;99.90
6724;DHT22;3399;52.530;13.304;2024-02-15T00:54:05;10.20;99.90
6724;DHT22;3399;52.530;13.304;2024-02-15T00:56:31;10.30;99.90
6724;DHT22;3399;52.530;13.304;2024-02-15T00:58:59;10.30;99.90
6724;DHT22;3399;52.530;13.304;2024-02-15T01:01:26;10.30;99.90
6724;DHT22;3399;52.530;13.304;2024-02-15T01:03:51;10.30;99.90
6724;DHT22;3399;52.530;13.304;2024-02-15T01:06:17;10.30;99.90
6724;DHT22;3399;52.530;13.304;2024-02-15T01:08:42;10.30;99.90
6724;DHT22;3399;52.530;13.304;2024-02-15T01:11:08;10.20;99.90
6724;DHT22;3399;52.530;13.304;2024-02-15T01:13:34;10.20;99.90
6724;DHT22;3399;52.530;13.304;2024-02-15T01:16:00;10.20;99.90
6724;DHT22;3399;52.530;13.304;2024-02-15T01:18:28;10.20;99.90
6724;DHT22;3399;52.530;13.304;2024-02-15T01:20:55;10.20;99.90
6724;DHT22;3399;52.530;13.304;2024-02-15T01:23:21;10.20;99.90
6724;DHT22;3399;52.530;13.304;2024-02-15T01:25:48;10.20;99.90
6724;DHT22;3399;52.530;13.304;2024-02-15T01:28:13;10.10;99.90
6724;DHT22;3399;52.530;13.304;2024-02-15T01:30:39;10.00;99.90
6724;DHT22;3399;52.530;13.304;2024-02-15T01:33:04;10.00;99.90
6724;DHT22;3399;52.530;13.304;2024-02-15T01:35:30;10.10;99.90
6724;DHT22;3399;52.530;13.304;2024-02-15T01:37:56;10.10;99.90
6724;DHT22;3399;52.530;13.304;2024-02-15T01:40:21;10.10;99.90
6724;DHT22;3399;52.530;13.304;2024-02-15T01:42:47;10.10;99.90
6724;DHT22;3399;52.530;13.304;2024-02-15T01:45:15;10.10;99.90
6724;DHT22;3399;52.530;13.304;2024-02-15T01:47:41;10.10;99.90
6724;DHT22;3399;52.530;13.304;2024-02-15T01:50:10;10.10;99.90
6724;DHT22;3399;52.530;13.304;2024-02-15T01:52:37;10.10;99.90
6724;DHT22;3399;52.530;13.304;2024-02-15T01:55:03;10.10;99.90
6724;DHT22;3399;52.530;13.304;2024-02-15T01:57:34;10.10;99.90
6724;DHT22;3399;52.530;13.304;2024-02-15T02:00:01;10.20;99.90
6724;DHT22;3399;52.530;13.304;2024-02-15T02:02:31;10.20;99.90
6724;DHT22;3399;52.530;13.304;2024-02-15T02:04:58;10.10;99.90
6724;DHT22;3399;52.530;13.304;2024-02-15T02:07:23;10.20;99.90
6724;DHT22;3399;52.530;13.304;2024-02-15T02:09:49;10.20;99.90
6724;DHT22;3399;52.530;13.304;2024-02-15T02:12:15;10.20;99.90
6724;DHT22;3399;52.530;13.304;2024-02-15T02:14:40;10.30;99.90
6724;DHT22;3399;52.530;13.304;2024-02-15T02:17:13;10.30;99.90
6724;DHT22;3399;52.530;13.304;2024-02-15T02:19:39;10.20;99.90
6724;DHT22;3399;52.530;13.304;2024-02-15T02:22:05;10.30;99.90
6724;DHT22;3399;52.530;13.304;2024-02-15T02:24:33;10.20;99.90
6724;DHT22;3399;52.530;13.304;2024-02-15T02:27:04;10.20;99.90
6724;DHT22;3399;52.530;13.304;2024-02-15T02:29:30;10.30;99.90
6724;DHT22;3399;52.530;13.304;2024-02-15T02:31:57;10.30;99.90
6724;DHT22;3399;52.530;13.304;2024-02-15T02:34:22;10.20;99.90
6724;DHT22;3399;52.530;13.304;2024-02-15T02:36:48;10.30;99.90
6724;DHT22;3399;52.530;13.304;2024-02-15T02:39:13;10.30;99.90
6724;DHT22;3399;52.530;13.304;2024-02-15T02:41:39;10.30;99.90
6724;DHT22;3399;52.530;13.304;2024-02-15T02:44:04;10.30;99.90
6724;DHT22;3399;52.530;13.304;2024-02-15T02:46:30;10.30;99.90
6724;DHT22;3399;52.530;13.304;2024-02-15T02:48:55;10.20;99.90
6724;DHT22;3399;52.530;13.304;2024-02-15T02:51:21;10.20;99.90
6724;DHT22;3399;52.530;13.304;2024-02-15T02:53:47;10.20;99.90
6724;DHT22;3399;52.530;13.304;2024-02-15T02:56:12;10.20;99.90
6724;DHT22;3399;52.530;13.304;2024-02-15T02:58:38;10.20;99.90
6724;DHT22;3399;52.530;13.304;2024-02-15T03:01:08;10.20;99.90
6724;DHT22;3399;52.530;13.304;2024-02-15T03:03:33;10.30;99.90
6724;DHT22;3399;52.530;13.304;2024-02-15T03:05:59;10.30;99.90
6724;DHT22;3399;52.530;13.304;2024-02-15T03:08:24;10.30;99.90
6724;DHT22;3399;52.530;13.304;2024-02-15T03:10:50;10.30;99.90
6724;DHT22;3399;52.530;13.304;2024-02-15T03:13:17;10.30;99.90
6724;DHT22;3399;52.530;13.304;2024-02-15T03:15:45;10.30;99.90
6724;DHT22;3399;52.530;13.304;2024-02-15T03:18:15;10.40;99.90
6724;DHT22;3399;52.530;13.304;2024-02-15T03:20:41;10.40;99.90
6724;DHT22;3399;52.530;13.304;2024-02-15T03:23:07;10.40;99.90
6724;DHT22;3399;52.530;13.304;2024-02-15T03:25:32;10.40;99.90
6724;DHT22;3399;52.530;13.304;2024-02-15T03:28:00;10.40;99.90
6724;DHT22;3399;52.530;13.304;2024-02-15T03:30:31;10.40;99.90
6724;DHT22;3399;52.530;13.304;2024-02-15T03:32:57;10.40;99.90
6724;DHT22;3399;52.530;13.304;2024-02-15T03:35:24;10.30;99.90
6724;DHT22;3399;52.530;13.304;2024-02-15T03:37:50;10.30;99.90
6724;DHT22;3399;52.530;13.304;2024-02-15T03:40:17;10.40;99.90
6724;DHT22;3399;52.530;13.304;2024-02-15T03:42:42;10.40;99.90
6724;DHT22;3399;52.530;13.304;2024-02-15T03:45:08;10.40;99.90
6724;DHT22;3399;52.530;13.304;2024-02-15T03:47:34;10.30;99.90
6724;DHT22;3399;52.530;13.304;2024-02-15T03:52:30;10.40;99.90
6724;DHT22;3399;52.530;13.304;2024-02-15T03:54:59;10.40;99.90
6724;DHT22;3399;52.530;13.304;2024-02-15T03:57:26;10.40;99.90
6724;DHT22;3399;52.530;13.304;2024-02-15T03:59:52;10.40;99.90
6724;DHT22;3399;52.530;13.304;2024-02-15T04:02:20;10.30;99.90
6724;DHT22;3399;52.530;13.304;2024-02-15T04:04:45;10.30;99.90
6724;DHT22;3399;52.530;13.304;2024-02-15T04:07:16;10.30;99.90
6724;DHT22;3399;52.530;13.304;2024-02-15T04:09:42;10.40;99.90
6724;DHT22;3399;52.530;13.304;2024-02-15T04:12:07;10.40;99.90
6724;DHT22;3399;52.530;13.304;2024-02-15T04:14:33;10.40;99.90
6724;DHT22;3399;52.530;13.304;2024-02-15T04:17:00;10.40;99.90
6724;DHT22;3399;52.530;13.304;2024-02-15T04:19:27;10.40;99.90
6724;DHT22;3399;52.530;13.304;2024-02-15T04:21:53;10.40;99.90
6724;DHT22;3399;52.530;13.304;2024-02-15T04:24:21;10.50;99.90
6724;DHT22;3399;52.530;13.304;2024-02-15T04:26:47;10.50;99.90
6724;DHT22;3399;52.530;13.304;2024-02-15T04:29:14;10.50;99.90
6724;DHT22;3399;52.530;13.304;2024-02-15T04:31:40;10.60;99.90
6724;DHT22;3399;52.530;13.304;2024-02-15T04:34:07;10.60;99.90
6724;DHT22;3399;52.530;13.304;2024-02-15T04:36:34;10.60;99.90
6724;DHT22;3399;52.530;13.304;2024-02-15T04:39:00;10.60;99.90
6724;DHT22;3399;52.530;13.304;2024-02-15T04:41:29;10.50;99.90
6724;DHT22;3399;52.530;13.304;2024-02-15T04:43:55;10.50;99.90
6724;DHT22;3399;52.530;13.304;2024-02-15T04:46:21;10.50;99.90
6724;DHT22;3399;52.530;13.304;2024-02-15T04:48:48;10.60;99.90
6724;DHT22;3399;52.530;13.304;2024-02-15T04:51:15;10.60;99.90
6724;DHT22;3399;52.530;13.304;2024-02-15T04:53:42;10.70;99.90
6724;DHT22;3399;52.530;13.304;2024-02-15T04:56:08;10.60;99.90
6724;DHT22;3399;52.530;13.304;2024-02-15T04:58:42;10.40;99.90
6724;DHT22;3399;52.530;13.304;2024-02-15T05:01:14;10.40;99.90
6724;DHT22;3399;52.530;13.304;2024-02-15T05:03:41;10.40;99.90
6724;DHT22;3399;52.530;13.304;2024-02-15T05:06:07;10.50;99.90
6724;DHT22;3399;52.530;13.304;2024-02-15T05:08:34;10.60;99.90
6724;DHT22;3399;52.530;13.304;2024-02-15T05:11:02;10.60;99.90
6724;DHT22;3399;52.530;13.304;2024-02-15T05:13:29;10.60;99.90
6724;DHT22;3399;52.530;13.304;2024-02-15T05:15:55;10.60;99.90
6724;DHT22;3399;52.530;13.304;2024-02-15T05:18:21;10.40;99.90
6724;DHT22;3399;52.530;13.304;2024-02-15T05:20:46;10.50;99.90
6724;DHT22;3399;52.530;13.304;2024-02-15T05:23:12;10.60;99.90
6724;DHT22;3399;52.530;13.304;2024-02-15T05:25:37;10.60;99.90
6724;DHT22;3399;52.530;13.304;2024-02-15T05:28:03;10.60;99.90
6724;DHT22;3399;52.530;13.304;2024-02-15T05:30:31;10.60;99.90
6724;DHT22;3399;52.530;13.304;2024-02-15T05:32:58;10.30;99.90
6724;DHT22;3399;52.530;13.304;2024-02-15T05:35:23;10.30;99.90
6724;DHT22;3399;52.530;13.304;2024-02-15T05:37:50;10.50;99.90
6724;DHT22;3399;52.530;13.304;2024-02-15T05:40:18;10.60;99.90
6724;DHT22;3399;52.530;13.304;2024-02-15T05:42:44;10.60;99.90
6724;DHT22;3399;52.530;13.304;2024-02-15T05:47:49;10.70;99.90
6724;DHT22;3399;52.530;13.304;2024-02-15T05:50:14;10.80;99.90
6724;DHT22;3399;52.530;13.304;2024-02-15T05:52:40;10.80;99.90
6724;DHT22;3399;52.530;13.304;2024-02-15T05:55:07;10.70;99.90
6724;DHT22;3399;52.530;13.304;2024-02-15T05:57:32;10.80;99.90
6724;DHT22;3399;52.530;13.304;2024-02-15T05:59:58;10.90;99.90
6724;DHT22;3399;52.530;13.304;2024-02-15T06:02:27;10.80;99.90
6724;DHT22;3399;52.530;13.304;2024-02-15T06:04:53;10.80;99.90
6724;DHT22;3399;52.530;13.304;2024-02-15T06:07:19;10.80;99.90
6724;DHT22;3399;52.530;13.304;2024-02-15T06:09:46;10.80;99.90
6724;DHT22;3399;52.530;13.304;2024-02-15T06:12:11;10.90;99.90
6724;DHT22;3399;52.530;13.304;2024-02-15T06:14:37;10.90;99.90
6724;DHT22;3399;52.530;13.304;2024-02-15T06:17:02;10.90;99.90
6724;DHT22;3399;52.530;13.304;2024-02-15T06:19:28;10.90;99.90
6724;DHT22;3399;52.530;13.304;2024-02-15T06:21:53;11.00;99.90
6724;DHT22;3399;52.530;13.304;2024-02-15T06:24:19;10.90;99.90
6724;DHT22;3399;52.530;13.304;2024-02-15T06:26:45;11.00;99.90
6724;DHT22;3399;52.530;13.304;2024-02-15T06:29:10;11.00;99.90
6724;DHT22;3399;52.530;13.304;2024-02-15T06:31:55;11.00;99.90
6724;DHT22;3399;52.530;13.304;2024-02-15T06:34:39;11.00;99.90
6724;DHT22;3399;52.530;13.304;2024-02-15T06:37:36;11.00;99.90
6724;DHT22;3399;52.530;13.304;2024-02-15T06:40:20;11.00;99.90
6724;DHT22;3399;52.530;13.304;2024-02-15T06:42:46;11.00;99.90
6724;DHT22;3399;52.530;13.304;2024-02-15T06:45:11;10.90;99.90
6724;DHT22;3399;52.530;13.304;2024-02-15T06:47:41;10.90;99.90
6724;DHT22;3399;52.530;13.304;2024-02-15T06:50:08;10.90;99.90
6724;DHT22;3399;52.530;13.304;2024-02-15T06:52:34;10.80;99.90
6724;DHT22;3399;52.530;13.304;2024-02-15T06:55:00;10.80;99.90
6724;DHT22;3399;52.530;13.304;2024-02-15T06:57:25;10.80;99.90
6724;DHT22;3399;52.530;13.304;2024-02-15T06:59:51;10.80;99.90
6724;DHT22;3399;52.530;13.304;2024-02-15T07:02:17;10.90;99.90
6724;DHT22;3399;52.530;13.304;2024-02-15T07:04:44;10.90;99.90
6724;DHT22;3399;52.530;13.304;2024-02-15T07:07:10;10.90;99.90
6724;DHT22;3399;52.530;13.304;2024-02-15T07:09:37;10.90;99.90
6724;DHT22;3399;52.530;13.304;2024-02-15T07:12:03;10.90;99.90
6724;DHT22;3399;52.530;13.304;2024-02-15T07:14:29;11.00;99.90
6724;DHT22;3399;52.530;13.304;2024-02-15T07:16:55;11.00;99.90
6724;DHT22;3399;52.530;13.304;2024-02-15T07:19:23;11.10;99.90
6724;DHT22;3399;52.530;13.304;2024-02-15T07:21:49;11.10;99.90
6724;DHT22;3399;52.530;13.304;2024-02-15T07:24:16;11.00;99.90
6724;DHT22;3399;52.530;13.304;2024-02-15T07:26:41;11.10;99.90
6724;DHT22;3399;52.530;13.304;2024-02-15T07:29:07;11.00;99.90
6724;DHT22;3399;52.530;13.304;2024-02-15T07:31:33;11.00;99.90
6724;DHT22;3399;52.530;13.304;2024-02-15T07:34:00;11.10;99.90
6724;DHT22;3399;52.530;13.304;2024-02-15T07:36:25;11.10;99.90
6724;DHT22;3399;52.530;13.304;2024-02-15T07:38:53;11.10;99.90
6724;DHT22;3399;52.530;13.304;2024-02-15T07:41:21;11.20;99.90
6724;DHT22;3399;52.530;13.304;2024-02-15T07:43:48;11.20;99.90
6724;DHT22;3399;52.530;13.304;2024-02-15T07:46:14;11.20;99.90
6724;DHT22;3399;52.530;13.304;2024-02-15T07:48:42;11.20;99.90
6724;DHT22;3399;52.530;13.304;2024-02-15T07:51:11;11.20;99.90
6724;DHT22;3399;52.530;13.304;2024-02-15T07:53:37;11.20;99.90
6724;DHT22;3399;52.530;13.304;2024-02-15T07:56:03;11.20;99.90
6724;DHT22;3399;52.530;13.304;2024-02-15T07:58:28;11.20;99.90
6724;DHT22;3399;52.530;13.304;2024-02-15T08:00:53;11.20;99.90
6724;DHT22;3399;52.530;13.304;2024-02-15T08:03:19;11.10;99.90
6724;DHT22;3399;52.530;13.304;2024-02-15T08:05:45;11.30;99.90
6724;DHT22;3399;52.530;13.304;2024-02-15T08:08:10;11.30;99.90
6724;DHT22;3399;52.530;13.304;2024-02-15T08:10:36;11.40;99.90
6724;DHT22;3399;52.530;13.304;2024-02-15T08:13:02;11.30;99.90
6724;DHT22;3399;52.530;13.304;2024-02-15T08:15:28;11.30;99.90
6724;DHT22;3399;52.530;13.304;2024-02-15T08:17:53;11.30;99.90
6724;DHT22;3399;52.530;13.304;2024-02-15T08:20:20;11.40;99.90
6724;DHT22;3399;52.530;13.304;2024-02-15T08:22:48;11.40;99.90
6724;DHT22;3399;52.530;13.304;2024-02-15T08:25:14;11.40;99.90
6724;DHT22;3399;52.530;13.304;2024-02-15T08:27:46;11.40;99.90
6724;DHT22;3399;52.530;13.304;2024-02-15T08:30:15;11.40;99.90
6724;DHT22;3399;52.530;13.304;2024-02-15T08:32:41;11.40;99.90
6724;DHT22;3399;52.530;13.304;2024-02-15T08:35:08;11.40;99.90
6724;DHT22;3399;52.530;13.304;2024-02-15T08:37:34;11.40;99.90
6724;DHT22;3399;52.530;13.304;2024-02-15T08:40:02;11.40;99.90
6724;DHT22;3399;52.530;13.304;2024-02-15T08:42:28;11.50;99.90
6724;DHT22;3399;52.530;13.304;2024-02-15T08:44:54;11.50;99.90
6724;DHT22;3399;52.530;13.304;2024-02-15T08:47:19;11.60;99.90
6724;DHT22;3399;52.530;13.304;2024-02-15T08:49:46;11.60;99.90
6724;DHT22;3399;52.530;13.304;2024-02-15T08:52:11;11.60;99.90
6724;DHT22;3399;52.530;13.304;2024-02-15T08:54:37;11.70;99.90
6724;DHT22;3399;52.530;13.304;2024-02-15T08:57:04;11.70;99.90
6724;DHT22;3399;52.530;13.304;2024-02-15T08:59:30;11.70;99.90
6724;DHT22;3399;52.530;13.304;2024-02-15T09:01:55;11.70;99.90
6724;DHT22;3399;52.530;13.304;2024-02-15T09:04:22;11.80;99.90
6724;DHT22;3399;52.530;13.304;2024-02-15T09:06:50;11.80;99.90
6724;DHT22;3399;52.530;13.304;2024-02-15T09:09:20;11.80;99.90
6724;DHT22;3399;52.530;13.304;2024-02-15T09:11:47;11.80;99.90
6724;DHT22;3399;52.530;13.304;2024-02-15T09:14:13;11.80;99.90
6724;DHT22;3399;52.530;13.304;2024-02-15T09:16:38;11.80;99.90
6724;DHT22;3399;52.530;13.304;2024-02-15T09:19:04;11.80;99.90
6724;DHT22;3399;52.530;13.304;2024-02-15T09:21:31;11.80;99.90
6724;DHT22;3399;52.530;13.304;2024-02-15T09:23:59;11.80;99.90
6724;DHT22;3399;52.530;13.304;2024-02-15T09:26:24;11.90;99.90
6724;DHT22;3399;52.530;13.304;2024-02-15T09:28:50;11.90;99.90
6724;DHT22;3399;52.530;13.304;2024-02-15T09:31:16;11.80;99.90
6724;DHT22;3399;52.530;13.304;2024-02-15T09:33:41;11.90;99.90
6724;DHT22;3399;52.530;13.304;2024-02-15T09:36:07;11.90;99.90
6724;DHT22;3399;52.530;13.304;2024-02-15T09:38:33;11.90;99.90
6724;DHT22;3399;52.530;13.304;2024-02-15T09:40:59;11.90;99.90
6724;DHT22;3399;52.530;13.304;2024-02-15T09:43:24;12.00;99.90
6724;DHT22;3399;52.530;13.304;2024-02-15T09:45:54;12.10;99.90
6724;DHT22;3399;52.530;13.304;2024-02-15T09:48:23;12.10;99.90
6724;DHT22;3399;52.530;13.304;2024-02-15T09:50:52;12.10;99.90
6724;DHT22;3399;52.530;13.304;2024-02-15T09:53:21;12.10;99.90
6724;DHT22;3399;52.530;13.304;2024-02-15T09:55:53;12.10;99.90
6724;DHT22;3399;52.530;13.304;2024-02-15T09:58:19;12.30;99.90
6724;DHT22;3399;52.530;13.304;2024-02-15T10:00:45;12.30;99.90
6724;DHT22;3399;52.530;13.304;2024-02-15T10:03:14;12.40;99.90
6724;DHT22;3399;52.530;13.304;2024-02-15T10:05:42;12.40;99.90
6724;DHT22;3399;52.530;13.304;2024-02-15T10:08:07;12.40;99.90
6724;DHT22;3399;52.530;13.304;2024-02-15T10:10:33;12.50;99.90
6724;DHT22;3399;52.530;13.304;2024-02-15T10:13:00;12.50;99.90
6724;DHT22;3399;52.530;13.304;2024-02-15T10:15:37;12.50;99.90
6724;DHT22;3399;52.530;13.304;2024-02-15T10:18:07;12.60;99.90
6724;DHT22;3399;52.530;13.304;2024-02-15T10:20:35;12.70;99.90
6724;DHT22;3399;52.530;13.304;2024-02-15T10:25:32;12.80;99.90
6724;DHT22;3399;52.530;13.304;2024-02-15T10:28:08;12.80;99.90
6724;DHT22;3399;52.530;13.304;2024-02-15T10:30:38;12.80;99.90
6724;DHT22;3399;52.530;13.304;2024-02-15T10:33:05;12.70;99.90
6724;DHT22;3399;52.530;13.304;2024-02-15T10:35:32;12.70;99.90
6724;DHT22;3399;52.530;13.304;2024-02-15T10:38:09;12.80;99.90
6724;DHT22;3399;52.530;13.304;2024-02-15T10:40:36;12.90;99.90
6724;DHT22;3399;52.530;13.304;2024-02-15T10:43:03;13.00;99.90
6724;DHT22;3399;52.530;13.304;2024-02-15T10:45:34;13.10;99.90
6724;DHT22;3399;52.530;13.304;2024-02-15T10:48:00;13.10;99.90
6724;DHT22;3399;52.530;13.304;2024-02-15T10:50:25;13.20;99.90
6724;DHT22;3399;52.530;13.304;2024-02-15T10:52:55;13.20;99.90
6724;DHT22;3399;52.530;13.304;2024-02-15T10:55:40;13.20;99.90
6724;DHT22;3399;52.530;13.304;2024-02-15T10:58:12;13.20;99.90
6724;DHT22;3399;52.530;13.304;2024-02-15T11:00:42;13.30;99.90
6724;DHT22;3399;52.530;13.304;2024-02-15T11:03:15;13.30;99.90
6724;DHT22;3399;52.530;13.304;2024-02-15T11:05:45;13.30;99.90
6724;DHT22;3399;52.530;13.304;2024-02-15T11:08:11;13.30;99.90
6724;DHT22;3399;52.530;13.304;2024-02-15T11:10:38;13.40;99.90
6724;DHT22;3399;52.530;13.304;2024-02-15T11:13:04;13.40;99.90
6724;DHT22;3399;52.530;13.304;2024-02-15T11:15:40;13.40;99.90
6724;DHT22;3399;52.530;13.304;2024-02-15T11:18:06;13.40;99.90
6724;DHT22;3399;52.530;13.304;2024-02-15T11:23:04;13.40;99.90
6724;DHT22;3399;52.530;13.304;2024-02-15T11:25:37;13.40;99.90
6724;DHT22;3399;52.530;13.304;2024-02-15T11:30:51;13.40;99.90
6724;DHT22;3399;52.530;13.304;2024-02-15T11:33:34;13.40;99.90
6724;DHT22;3399;52.530;13.304;2024-02-15T11:36:11;13.40;99.90
6724;DHT22;3399;52.530;13.304;2024-02-15T11:38:38;13.50;99.90
6724;DHT22;3399;52.530;13.304;2024-02-15T11:41:09;13.60;99.90
6724;DHT22;3399;52.530;13.304;2024-02-15T11:43:46;13.50;99.90
6724;DHT22;3399;52.530;13.304;2024-02-15T11:46:18;13.40;99.90
6724;DHT22;3399;52.530;13.304;2024-02-15T11:48:50;13.40;99.90
6724;DHT22;3399;52.530;13.304;2024-02-15T11:51:45;13.40;99.90
6724;DHT22;3399;52.530;13.304;2024-02-15T11:54:13;13.40;99.90
6724;DHT22;3399;52.530;13.304;2024-02-15T11:59:13;13.30;99.90
6724;DHT22;3399;52.530;13.304;2024-02-15T12:01:57;13.30;99.90
6724;DHT22;3399;52.530;13.304;2024-02-15T12:04:41;13.20;99.90
6724;DHT22;3399;52.530;13.304;2024-02-15T12:07:26;13.20;99.90
6724;DHT22;3399;52.530;13.304;2024-02-15T12:10:17;13.20;99.90
6724;DHT22;3399;52.530;13.304;2024-02-15T12:13:01;13.30;99.90
6724;DHT22;3399;52.530;13.304;2024-02-15T12:15:59;13.40;99.90
6724;DHT22;3399;52.530;13.304;2024-02-15T12:18:44;13.50;99.90
6724;DHT22;3399;52.530;13.304;2024-02-15T12:21:14;13.50;99.90
6724;DHT22;3399;52.530;13.304;2024-02-15T12:23:41;13.50;99.90
6724;DHT22;3399;52.530;13.304;2024-02-15T12:26:07;13.50;99.90
6724;DHT22;3399;52.530;13.304;2024-02-15T12:28:33;13.50;99.90
6724;DHT22;3399;52.530;13.304;2024-02-15T12:31:01;13.50;99.90
6724;DHT22;3399;52.530;13.304;2024-02-15T12:33:27;13.50;99.90
6724;DHT22;3399;52.530;13.304;2024-02-15T12:36:06;13.50;99.90
6724;DHT22;3399;52.530;13.304;2024-02-15T12:38:32;13.50;99.90
6724;DHT22;3399;52.530;13.304;2024-02-15T12:40:59;13.50;99.90
6724;DHT22;3399;52.530;13.304;2024-02-15T12:43:25;13.60;99.90
6724;DHT22;3399;52.530;13.304;2024-02-15T12:45:51;13.60;99.90
6724;DHT22;3399;52.530;13.304;2024-02-15T12:48:18;13.60;99.90
6724;DHT22;3399;52.530;13.304;2024-02-15T12:50:44;13.60;99.90
6724;DHT22;3399;52.530;13.304;2024-02-15T12:53:10;13.70;99.90
6724;DHT22;3399;52.530;13.304;2024-02-15T12:55:37;13.70;99.90
6724;DHT22;3399;52.530;13.304;2024-02-15T12:58:04;13.80;99.90
6724;DHT22;3399;52.530;13.304;2024-02-15T13:00:33;13.80;99.90
6724;DHT22;3399;52.530;13.304;2024-02-15T13:03:05;13.80;99.90
6724;DHT22;3399;52.530;13.304;2024-02-15T13:05:34;13.90;99.90
6724;DHT22;3399;52.530;13.304;2024-02-15T13:08:01;13.90;99.90
6724;DHT22;3399;52.530;13.304;2024-02-15T13:10:28;14.00;99.90
6724;DHT22;3399;52.530;13.304;2024-02-15T13:12:55;14.00;99.90
6724;DHT22;3399;52.530;13.304;2024-02-15T13:15:22;14.00;99.90
6724;DHT22;3399;52.530;13.304;2024-02-15T13:17:53;13.90;99.90
6724;DHT22;3399;52.530;13.304;2024-02-15T13:20:22;13.90;99.90
6724;DHT22;3399;52.530;13.304;2024-02-15T13:22:59;13.90;99.90
6724;DHT22;3399;52.530;13.304;2024-02-15T13:25:32;13.90;99.90
6724;DHT22;3399;52.530;13.304;2024-02-15T13:27:57;14.00;99.90
6724;DHT22;3399;52.530;13.304;2024-02-15T13:30:23;14.00;99.90
6724;DHT22;3399;52.530;13.304;2024-02-15T13:32:53;14.00;99.90
6724;DHT22;3399;52.530;13.304;2024-02-15T13:35:20;14.10;99.90
6724;DHT22;3399;52.530;13.304;2024-02-15T13:40:15;14.10;99.90
6724;DHT22;3399;52.530;13.304;2024-02-15T13:42:47;14.20;99.90
6724;DHT22;3399;52.530;13.304;2024-02-15T13:45:23;14.20;99.90
6724;DHT22;3399;52.530;13.304;2024-02-15T13:47:50;14.10;99.90
6724;DHT22;3399;52.530;13.304;2024-02-15T13:50:16;14.20;99.90
6724;DHT22;3399;52.530;13.304;2024-02-15T13:52:43;14.20;99.90
6724;DHT22;3399;52.530;13.304;2024-02-15T13:55:14;14.20;99.90
6724;DHT22;3399;52.530;13.304;2024-02-15T13:57:41;14.20;99.90
6724;DHT22;3399;52.530;13.304;2024-02-15T14:00:08;14.30;99.90
6724;DHT22;3399;52.530;13.304;2024-02-15T14:02:39;14.30;99.90
6724;DHT22;3399;52.530;13.304;2024-02-15T14:05:05;14.40;99.90
6724;DHT22;3399;52.530;13.304;2024-02-15T14:07:36;14.40;99.90
6724;DHT22;3399;52.530;13.304;2024-02-15T14:10:03;14.60;99.90
6724;DHT22;3399;52.530;13.304;2024-02-15T14:12:29;14.60;99.90
6724;DHT22;3399;52.530;13.304;2024-02-15T14:14:55;14.60;99.90
6724;DHT22;3399;52.530;13.304;2024-02-15T14:17:21;14.50;99.90
6724;DHT22;3399;52.530;13.304;2024-02-15T14:19:47;14.40;99.90
6724;DHT22;3399;52.530;13.304;2024-02-15T14:22:12;14.40;99.90
6724;DHT22;3399;52.530;13.304;2024-02-15T14:24:44;14.30;99.90
6724;DHT22;3399;52.530;13.304;2024-02-15T14:27:10;14.30;99.90
6724;DHT22;3399;52.530;13.304;2024-02-15T14:29:37;14.30;99.90
6724;DHT22;3399;52.530;13.304;2024-02-15T14:32:12;14.30;99.90
6724;DHT22;3399;52.530;13.304;2024-02-15T14:34:57;14.30;99.90
6724;DHT22;3399;52.530;13.304;2024-02-15T14:37:23;14.30;99.90
6724;DHT22;3399;52.530;13.304;2024-02-15T14:39:49;14.30;99.90
6724;DHT22;3399;52.530;13.304;2024-02-15T14:42:14;14.30;99.90
6724;DHT22;3399;52.530;13.304;2024-02-15T14:44:40;14.40;99.90
6724;DHT22;3399;52.530;13.304;2024-02-15T14:47:08;14.40;99.90
6724;DHT22;3399;52.530;13.304;2024-02-15T14:49:34;14.40;99.90
6724;DHT22;3399;52.530;13.304;2024-02-15T14:52:00;14.40;99.90
6724;DHT22;3399;52.530;13.304;2024-02-15T14:54:27;14.40;99.90
6724;DHT22;3399;52.530;13.304;2024-02-15T14:56:52;14.30;99.90
6724;DHT22;3399;52.530;13.304;2024-02-15T14:59:19;14.20;99.90
6724;DHT22;3399;52.530;13.304;2024-02-15T15:01:44;14.20;99.90
6724;DHT22;3399;52.530;13.304;2024-02-15T15:04:10;14.20;99.90
6724;DHT22;3399;52.530;13.304;2024-02-15T15:06:36;14.20;99.90
6724;DHT22;3399;52.530;13.304;2024-02-15T15:09:21;14.20;99.90
6724;DHT22;3399;52.530;13.304;2024-02-15T15:12:05;14.20;99.90
6724;DHT22;3399;52.530;13.304;2024-02-15T15:14:49;14.20;99.90
6724;DHT22;3399;52.530;13.304;2024-02-15T15:17:14;14.10;99.90
6724;DHT22;3399;52.530;13.304;2024-02-15T15:19:42;14.20;99.90
6724;DHT22;3399;52.530;13.304;2024-02-15T15:22:07;14.10;99.90
6724;DHT22;3399;52.530;13.304;2024-02-15T15:24:33;14.10;99.90
6724;DHT22;3399;52.530;13.304;2024-02-15T15:26:59;14.10;99.90
6724;DHT22;3399;52.530;13.304;2024-02-15T15:29:25;14.10;99.90
6724;DHT22;3399;52.530;13.304;2024-02-15T15:31:51;14.10;99.90
6724;DHT22;3399;52.530;13.304;2024-02-15T15:34:17;14.10;99.90
6724;DHT22;3399;52.530;13.304;2024-02-15T15:36:45;14.00;99.90
6724;DHT22;3399;52.530;13.304;2024-02-15T15:39:12;14.00;99.90
6724;DHT22;3399;52.530;13.304;2024-02-15T15:41:37;14.00;99.90
6724;DHT22;3399;52.530;13.304;2024-02-15T15:44:03;14.00;99.90
6724;DHT22;3399;52.530;13.304;2024-02-15T15:46:30;14.00;99.90
6724;DHT22;3399;52.530;13.304;2024-02-15T15:48:56;14.00;99.90
6724;DHT22;3399;52.530;13.304;2024-02-15T15:51:21;14.00;99.90
6724;DHT22;3399;52.530;13.304;2024-02-15T15:53:47;14.00;99.90
6724;DHT22;3399;52.530;13.304;2024-02-15T15:56:15;14.00;99.90
6724;DHT22;3399;52.530;13.304;2024-02-15T15:58:42;14.00;99.90
6724;DHT22;3399;52.530;13.304;2024-02-15T16:01:10;13.90;99.90
6724;DHT22;3399;52.530;13.304;2024-02-15T16:03:36;13.90;99.90
6724;DHT22;3399;52.530;13.304;2024-02-15T16:06:02;13.90;99.90